Accueil
METAR-TAF:

METAR-TAF

Aéroports :

Wattisham, Angleterre

latitude: 52-07N, longitude: 000-58E, altitude: 87 m

Observation

Le bulletin a été fait il y a 22 minutes, à 00:50 UTC
Vent 4 kt de sud/sud-ouest
Température 7°C
Humidité 93%
Pression 1032 hPa
Visibilité: 6000 m
brume

METAR: EGUW 210050Z AUTO 21004KT 6000 BR SCT016/// 07/06 Q1032

Heure: 01:12 (01:12 UTC)

Prévision

Le bulletin a été fait il y a 5 heures et 42 minutes, à 19:30 UTC
Prévision valable du 20 à 21 UTC au 21 à 01 UTC
Vent 6 kt de sud-ouest
Visibilité 10 km ou plus
Quelques nuages à une hauteur de 1800 ft
Probabilité 30% :
Temporairement
du 20 à 21 UTC au 21 à 01 UTC
Nuages fragmentés à une hauteur de 1800 ft
Evoluant progressivement
du 20 à 22 UTC au 21 à 01 UTC
Visibilité: 5000 m
brume

TAF: EGUW 201930Z 2021/2101 23006KT 9999 FEW018 PROB30 TEMPO 2021/2101 BKN018 BECMG 2022/2101 5000 BR

Observations et prévisions météorologiques de plus de 4000 aéroports (messages METAR et TAF).

Les stations disponibles sont représentées par des disques jaunes et rouges sur la carte.

Passer la souris dessus pour voir le nom de la station.

Cliquer dessus pour voir les observations et prévisions météorologiques.

Pour changer de carte: cliquez sur les boutons verts avec une croix noire pour zoomer, sur le bouton vert avec un tiret pour effectuer un zoom arrière, ou sur les flèches vertes pour les cartes adjacentes.


METAR-TAF: